createdAt,value
2022-09-05T04:00:44.056Z,58.42
2022-09-05T04:08:24.254Z,58.20
2022-09-05T04:09:43.338Z,58.28
2022-09-05T04:13:50.263Z,57.38
2022-09-05T04:18:04.069Z,57.20
2022-09-05T04:22:19.135Z,57.07
2022-09-05T04:26:36.063Z,57.23
2022-09-05T04:30:44.312Z,57.07
2022-09-05T04:35:04.233Z,57.12
2022-09-05T04:39:10.094Z,56.63
2022-09-05T04:43:21.739Z,56.53
2022-09-05T04:47:29.823Z,55.96
2022-09-05T04:52:00.072Z,55.51
2022-09-05T04:56:10.631Z,56.38
2022-09-05T05:06:04.780Z,55.50
2022-09-05T05:06:09.238Z,55.16
2022-09-05T05:09:08.355Z,55.65
2022-09-05T05:18:07.037Z,55.50
2022-09-05T05:18:11.488Z,55.42
2022-09-05T05:22:18.538Z,55.67
2022-09-05T05:26:26.304Z,55.86
2022-09-05T05:30:33.043Z,55.66
2022-09-05T05:34:38.002Z,55.02
2022-09-05T05:38:46.446Z,55.32
2022-09-05T05:42:50.375Z,54.68
2022-09-05T05:46:59.411Z,53.67
2022-09-05T05:51:17.552Z,53.08
2022-09-05T05:55:52.717Z,52.36
2022-09-05T06:00:06.916Z,52.18
2022-09-05T06:05:20.201Z,52.11
2022-09-05T06:14:50.671Z,51.33
2022-09-05T06:15:12.021Z,51.52
2022-09-05T06:20:49.024Z,50.88
2022-09-05T06:24:53.665Z,50.07
2022-09-05T06:29:09.482Z,49.48
2022-09-05T06:33:23.122Z,49.45
2022-09-05T06:37:39.858Z,48.78
2022-09-05T06:41:57.831Z,48.61
2022-09-05T06:46:50.592Z,48.33
2022-09-05T06:51:07.766Z,47.81
2022-09-05T06:55:38.608Z,47.57
2022-09-05T07:00:06.118Z,47.51
2022-09-05T07:05:37.819Z,47.64
2022-09-05T07:09:04.146Z,46.78
2022-09-05T07:13:16.508Z,47.12
2022-09-05T07:17:26.064Z,47.38
2022-09-05T07:21:35.601Z,47.14
2022-09-05T07:25:42.744Z,46.78
2022-09-05T07:29:52.474Z,46.52
2022-09-05T07:34:20.928Z,45.55
2022-09-05T07:38:52.414Z,44.78
2022-09-05T07:43:09.190Z,44.05
2022-09-05T07:47:21.823Z,43.14
2022-09-05T07:54:39.424Z,43.21
2022-09-05T07:57:05.169Z,42.44
2022-09-05T08:00:27.248Z,42.79
2022-09-05T08:04:35.890Z,42.38
2022-09-05T08:09:05.643Z,42.97
2022-09-05T08:13:24.744Z,42.79
2022-09-05T08:17:30.861Z,42.47
2022-09-05T08:21:42.352Z,41.67
2022-09-05T08:25:57.595Z,40.92
2022-09-05T08:30:25.656Z,40.37
2022-09-05T08:34:44.877Z,39.86
2022-09-05T08:38:50.970Z,39.13
2022-09-05T08:46:10.834Z,38.62
2022-09-05T08:47:33.121Z,38.73
2022-09-05T08:51:55.794Z,39.02
2022-09-05T08:56:04.856Z,39.41
2022-09-05T09:00:20.430Z,38.90
2022-09-05T09:05:02.573Z,38.56
2022-09-05T09:09:14.833Z,37.97
2022-09-05T09:13:35.024Z,38.45
2022-09-05T09:17:43.851Z,38.91
2022-09-05T09:21:55.047Z,38.91
2022-09-05T09:26:11.137Z,38.55
2022-09-05T09:30:16.547Z,38.48
2022-09-05T09:34:47.113Z,38.89
2022-09-05T09:39:08.108Z,38.86
2022-09-05T09:43:44.231Z,38.65
2022-09-05T09:48:20.884Z,38.86
2022-09-05T09:53:00.135Z,38.77
2022-09-05T09:57:25.206Z,38.55
2022-09-05T10:01:38.422Z,38.60
2022-09-05T10:10:47.489Z,37.91
2022-09-05T10:11:52.887Z,36.79
2022-09-05T10:15:57.012Z,37.24
2022-09-05T10:20:26.142Z,35.99
2022-09-05T10:24:54.904Z,35.93
2022-09-05T10:29:36.734Z,36.84
2022-09-05T10:35:12.790Z,36.01
2022-09-05T10:38:11.187Z,36.20
2022-09-05T10:42:21.446Z,35.57
2022-09-05T10:46:50.362Z,35.38
2022-09-05T10:51:00.840Z,35.58
2022-09-05T10:55:13.772Z,35.80
2022-09-05T11:02:24.629Z,34.73
2022-09-05T11:03:53.448Z,34.71
2022-09-05T11:08:08.487Z,34.35
2022-09-05T11:12:26.458Z,33.98
2022-09-05T11:16:39.129Z,33.86
2022-09-05T11:20:50.634Z,33.37
2022-09-05T11:24:56.785Z,33.15
2022-09-05T11:29:04.990Z,33.25
2022-09-05T11:39:50.204Z,33.13
2022-09-05T11:40:03.626Z,33.20
2022-09-05T11:43:19.787Z,33.33
2022-09-05T11:47:47.208Z,33.22
2022-09-05T11:52:21.203Z,32.29
2022-09-05T11:56:46.031Z,32.72
2022-09-05T12:01:38.219Z,32.91
2022-09-05T12:05:59.744Z,31.35
2022-09-05T12:10:46.475Z,30.92
2022-09-05T12:15:04.458Z,31.49
2022-09-05T12:19:32.845Z,31.13
2022-09-05T12:24:50.049Z,31.42
2022-09-05T12:29:26.251Z,32.05
2022-09-05T12:35:53.106Z,31.54
2022-09-05T12:40:54.391Z,31.37
2022-09-05T12:42:14.880Z,30.75
2022-09-05T12:46:24.189Z,30.22
2022-09-05T12:50:39.382Z,30.07
2022-09-05T12:54:49.338Z,30.75
2022-09-05T13:02:57.666Z,31.12
2022-09-05T13:03:40.847Z,32.05
2022-09-05T13:07:50.027Z,31.41
2022-09-05T13:14:49.601Z,30.87
2022-09-05T13:16:28.808Z,31.16
2022-09-05T13:20:36.674Z,30.93
2022-09-05T13:24:42.632Z,30.88
2022-09-05T13:28:52.014Z,30.53
2022-09-05T13:38:05.478Z,30.48
2022-09-05T13:38:19.874Z,30.65
2022-09-05T13:42:18.070Z,30.43
2022-09-05T13:46:24.902Z,30.50
2022-09-05T13:50:29.401Z,30.48
2022-09-05T13:54:40.576Z,30.39
2022-09-05T13:58:56.418Z,29.82
2022-09-05T14:03:40.887Z,29.45
2022-09-05T14:08:17.864Z,29.18
2022-09-05T14:12:36.967Z,29.05
2022-09-05T14:16:49.861Z,29.16
2022-09-05T14:21:17.798Z,28.68
2022-09-05T14:25:24.345Z,28.67
2022-09-05T14:29:35.654Z,28.66
2022-09-05T14:37:49.292Z,27.82
2022-09-05T14:38:21.055Z,28.17
2022-09-05T14:42:48.346Z,28.19
2022-09-05T14:47:35.473Z,28.99
2022-09-05T14:51:47.610Z,29.64
2022-09-05T14:57:08.155Z,29.45
2022-09-05T15:02:56.202Z,29.75
2022-09-05T15:04:55.058Z,29.59
2022-09-05T15:12:14.425Z,29.65
2022-09-05T15:13:26.291Z,30.24
2022-09-05T15:17:30.426Z,31.14
2022-09-05T15:21:38.275Z,31.12
2022-09-05T15:25:47.019Z,31.25
2022-09-05T15:29:56.063Z,30.99
2022-09-05T15:34:21.028Z,29.79
2022-09-05T15:38:28.413Z,29.48
2022-09-05T15:42:33.032Z,29.71
2022-09-05T15:46:47.221Z,30.00
2022-09-05T15:50:53.124Z,30.41
2022-09-05T15:55:02.045Z,30.84
2022-09-05T15:59:05.889Z,31.10
2022-09-05T16:04:47.868Z,31.90
2022-09-05T16:10:49.319Z,31.88
2022-09-05T16:12:19.226Z,32.53
2022-09-05T16:23:19.631Z,32.91
2022-09-05T16:23:27.195Z,32.84
2022-09-05T16:25:23.084Z,31.99
2022-09-05T16:29:30.050Z,31.34
2022-09-05T16:33:34.558Z,31.13
2022-09-05T16:37:41.633Z,31.18
2022-09-05T16:41:49.269Z,31.15
2022-09-05T16:45:58.657Z,30.51
2022-09-05T16:50:07.099Z,30.10
2022-09-05T16:54:30.079Z,29.53
2022-09-05T16:58:35.039Z,29.42
2022-09-05T17:02:43.830Z,29.31
2022-09-05T17:06:55.126Z,29.16
2022-09-05T17:11:03.760Z,29.21
2022-09-05T17:15:14.327Z,30.02
2022-09-05T17:19:23.021Z,30.41
2022-09-05T17:29:18.076Z,31.42
2022-09-05T17:29:33.329Z,32.37
2022-09-05T17:32:19.161Z,33.20
2022-09-05T17:36:38.465Z,33.89
2022-09-05T17:41:11.860Z,34.27
2022-09-05T17:45:21.661Z,34.83
2022-09-05T17:49:40.500Z,35.12
2022-09-05T17:54:22.863Z,35.49
2022-09-05T17:58:28.211Z,35.99
2022-09-05T18:02:55.858Z,36.33
2022-09-05T18:11:34.061Z,37.29
2022-09-05T18:16:10.417Z,37.54
2022-09-05T18:20:18.402Z,38.00
2022-09-05T18:24:33.379Z,38.18
2022-09-05T18:28:52.786Z,38.32
2022-09-05T18:33:54.579Z,38.72
2022-09-05T18:38:18.472Z,39.03
2022-09-05T18:42:34.285Z,39.29
2022-09-05T18:46:45.592Z,39.85
2022-09-05T18:50:50.219Z,40.13
2022-09-05T18:56:11.298Z,40.49
2022-09-05T18:59:24.974Z,40.59
2022-09-05T19:03:31.533Z,40.71
2022-09-05T19:07:40.785Z,41.01
2022-09-05T19:11:54.555Z,41.02
2022-09-05T19:16:33.069Z,40.98
2022-09-05T19:20:32.182Z,40.98
2022-09-05T19:24:45.621Z,41.04
2022-09-05T19:36:59.133Z,41.06
2022-09-05T19:37:06.834Z,41.30
2022-09-05T19:37:51.878Z,41.21
2022-09-05T19:47:34.815Z,41.62
2022-09-05T19:47:36.098Z,41.44
2022-09-05T19:50:44.654Z,41.98
2022-09-05T19:54:51.781Z,42.22
2022-09-05T19:58:55.220Z,42.52
2022-09-05T20:03:00.907Z,42.73
2022-09-05T20:07:16.389Z,43.03
2022-09-05T20:11:28.560Z,42.81
2022-09-05T20:15:48.814Z,43.19
2022-09-05T20:20:07.994Z,43.81
2022-09-05T20:24:10.612Z,43.41
2022-09-05T20:28:17.472Z,43.93
2022-09-05T20:32:32.496Z,43.71
2022-09-05T20:42:04.766Z,43.74
2022-09-05T20:43:32.088Z,43.72
2022-09-05T20:46:17.501Z,44.07
2022-09-05T20:54:24.765Z,44.07
2022-09-05T20:54:53.243Z,44.47
2022-09-05T20:58:58.444Z,44.43
